Terminal Aerodrome Forecast
Issued by NWS Tampa Bay Area, FL

Home | Current Version | Previous Version | Text Only | Print | Product List | Glossary On
Versions: 1 2 3 4 5 6 7 8 9 10 11 12 13 14 15 16 17 18 19 20 21 22 23 24 25
000
FTUS42 KTBW 310539
TAFTPA
TAF
KTPA 310539Z 3106/0106 VRB03KT P6SM SKC
     FM311400 23005KT P6SM SCT035 SCT250
     FM311800 26007KT P6SM VCTS SCT045CB SCT250
     FM312100 30008KT P6SM FEW060 SCT250
     FM010200 01005KT P6SM SCT250=

USA.gov is the U.S. government's official web portal to all federal, state and local government web resources and services.